createdAt,value
2019-02-21T00:02:26.056Z,12.05
2019-02-21T00:05:04.561Z,11.95
2019-02-21T00:07:34.746Z,11.40
2019-02-21T00:10:05.751Z,12.53
2019-02-21T00:12:36.790Z,12.37
2019-02-21T00:15:07.779Z,12.75
2019-02-21T00:17:37.968Z,10.58
2019-02-21T00:20:10.339Z,11.88
2019-02-21T00:22:41.366Z,13.15
2019-02-21T00:25:11.525Z,14.20
2019-02-21T00:27:46.445Z,15.95
2019-02-21T00:30:16.657Z,17.20
2019-02-21T00:32:46.825Z,18.12
2019-02-21T00:35:18.366Z,11.78
2019-02-21T00:37:50.400Z,12.93
2019-02-21T00:40:20.882Z,12.73
2019-02-21T00:42:51.008Z,13.10
2019-02-21T00:45:23.458Z,12.18
2019-02-21T00:47:53.622Z,15.20
2019-02-21T00:50:24.104Z,16.07
2019-02-21T00:52:56.553Z,14.33
2019-02-21T00:55:28.476Z,14.10
2019-02-21T00:57:58.706Z,12.13
2019-02-21T01:00:28.842Z,12.60
2019-02-21T01:02:59.270Z,13.08
2019-02-21T01:05:33.993Z,12.00
2019-02-21T01:08:07.387Z,12.50
2019-02-21T01:10:40.603Z,12.90
2019-02-21T01:13:13.240Z,11.78
2019-02-21T01:15:44.950Z,13.68
2019-02-21T01:18:16.021Z,14.18
2019-02-21T01:20:46.654Z,12.28
2019-02-21T01:23:16.919Z,12.60
2019-02-21T01:25:48.165Z,11.57
2019-02-21T01:28:21.203Z,13.83
2019-02-21T01:30:57.046Z,13.95
2019-02-21T01:33:26.871Z,14.13
2019-02-21T01:35:57.099Z,12.45
2019-02-21T01:38:27.267Z,13.13
2019-02-21T01:40:57.466Z,14.28
2019-02-21T01:43:31.178Z,15.20
2019-02-21T01:46:03.053Z,12.40
2019-02-21T01:48:33.189Z,14.25
2019-02-21T01:51:03.340Z,12.65
2019-02-21T01:53:33.621Z,13.28
2019-02-21T01:56:03.759Z,13.30
2019-02-21T01:58:36.759Z,12.40
2019-02-21T02:01:08.793Z,12.23
2019-02-21T02:03:42.412Z,14.73
2019-02-21T02:06:12.299Z,15.20
2019-02-21T02:08:45.412Z,12.30
2019-02-21T02:11:15.537Z,13.85
2019-02-21T02:13:47.764Z,12.40
2019-02-21T02:16:19.162Z,13.43
2019-02-21T02:18:49.352Z,12.65
2019-02-21T02:21:21.255Z,13.40
2019-02-21T02:23:52.232Z,10.80
2019-02-21T02:26:23.595Z,13.10
2019-02-21T02:28:56.658Z,11.45
2019-02-21T02:31:31.624Z,13.32
2019-02-21T02:34:01.869Z,10.85
2019-02-21T02:36:32.023Z,12.00
2019-02-21T02:39:02.195Z,12.25
2019-02-21T02:41:32.730Z,13.20
2019-02-21T02:44:03.470Z,14.98
2019-02-21T02:46:33.610Z,17.85
2019-02-21T02:49:04.239Z,14.13
2019-02-21T02:51:36.791Z,13.90
2019-02-21T02:54:09.409Z,13.18
2019-02-21T02:56:39.550Z,16.45
2019-02-21T02:59:09.736Z,14.43
2019-02-21T03:01:39.901Z,13.62
2019-02-21T03:04:12.039Z,14.30
2019-02-21T03:06:44.694Z,12.95
2019-02-21T03:09:18.888Z,12.53
2019-02-21T03:11:51.909Z,14.75
2019-02-21T03:14:22.188Z,15.53
2019-02-21T03:16:55.232Z,13.98
2019-02-21T03:19:26.648Z,13.90
2019-02-21T03:21:56.804Z,12.15
2019-02-21T03:24:29.752Z,12.47
2019-02-21T03:27:02.203Z,13.78
2019-02-21T03:29:32.316Z,14.05
2019-02-21T03:32:05.668Z,15.98
2019-02-21T03:34:39.152Z,14.45
2019-02-21T03:37:09.313Z,11.68
2019-02-21T03:39:41.279Z,15.65
2019-02-21T03:42:11.582Z,13.08
2019-02-21T03:44:41.752Z,14.15
2019-02-21T03:47:17.515Z,13.22
2019-02-21T03:49:47.948Z,11.63
2019-02-21T03:52:20.585Z,12.43
2019-02-21T03:54:52.014Z,14.40
2019-02-21T03:57:23.771Z,13.28
2019-02-21T03:59:53.912Z,12.13
2019-02-21T04:02:25.729Z,12.40
2019-02-21T04:04:58.108Z,13.08
2019-02-21T04:07:28.407Z,15.00
2019-02-21T04:09:59.468Z,11.93
2019-02-21T04:12:29.613Z,13.30
2019-02-21T04:15:00.493Z,13.40
2019-02-21T04:17:30.788Z,12.85
2019-02-21T04:20:01.425Z,13.45
2019-02-21T04:22:32.255Z,14.38
2019-02-21T04:25:02.406Z,12.35
2019-02-21T04:27:36.534Z,12.70
2019-02-21T04:30:08.492Z,16.00
2019-02-21T04:32:40.025Z,15.08
2019-02-21T04:35:14.486Z,14.63
2019-02-21T04:37:45.019Z,15.08
2019-02-21T04:40:15.180Z,14.45
2019-02-21T04:42:45.376Z,14.25
2019-02-21T04:45:17.875Z,14.83
2019-02-21T04:47:49.268Z,14.80
2019-02-21T04:50:19.719Z,14.28
2019-02-21T04:52:52.188Z,13.90
2019-02-21T04:55:22.353Z,15.28
2019-02-21T04:57:53.318Z,14.95
2019-02-21T05:00:36.579Z,14.55
2019-02-21T05:03:07.051Z,14.03
2019-02-21T05:05:39.801Z,13.50
2019-02-21T05:08:09.967Z,16.17
2019-02-21T05:10:40.132Z,16.87
2019-02-21T05:13:11.541Z,17.50
2019-02-21T05:15:43.693Z,26.95
2019-02-21T05:18:16.854Z,24.40
2019-02-21T05:20:50.015Z,18.35
2019-02-21T05:23:21.018Z,16.48
2019-02-21T05:25:51.230Z,15.45
2019-02-21T05:28:25.564Z,16.80
2019-02-21T05:30:58.845Z,18.02
2019-02-21T05:33:46.347Z,15.78
2019-02-21T05:36:37.017Z,13.60
2019-02-21T05:39:27.043Z,15.90
2019-02-21T05:42:14.678Z,14.65
2019-02-21T05:45:04.126Z,14.35
2019-02-21T05:48:02.375Z,14.23
2019-02-21T05:50:52.564Z,14.73
2019-02-21T05:53:35.429Z,15.85
2019-02-21T05:56:24.547Z,12.85
2019-02-21T05:59:01.329Z,11.75
2019-02-21T06:01:53.289Z,14.30
2019-02-21T06:04:58.120Z,12.75
2019-02-21T06:07:59.296Z,13.28
2019-02-21T06:10:53.287Z,13.43
2019-02-21T06:13:44.721Z,16.30
2019-02-21T06:16:32.679Z,13.80
2019-02-21T06:19:20.757Z,14.20
2019-02-21T06:22:10.078Z,13.50
2019-02-21T06:24:54.114Z,13.35
2019-02-21T06:27:49.343Z,14.13
2019-02-21T06:30:43.231Z,15.38
2019-02-21T06:33:12.452Z,16.02
2019-02-21T06:35:42.616Z,13.43
2019-02-21T06:38:12.941Z,14.87
2019-02-21T06:40:43.098Z,13.70
2019-02-21T06:43:14.021Z,14.83
2019-02-21T06:45:44.197Z,13.55
2019-02-21T06:48:28.144Z,16.50
2019-02-21T06:50:59.096Z,13.70
2019-02-21T06:53:30.264Z,15.90
2019-02-21T06:56:00.426Z,13.98
2019-02-21T06:58:30.961Z,14.43
2019-02-21T07:01:01.327Z,15.85
2019-02-21T07:03:31.710Z,16.23
2019-02-21T07:06:01.925Z,17.40
2019-02-21T07:08:34.199Z,15.75
2019-02-21T07:11:06.424Z,16.12
2019-02-21T07:13:36.236Z,17.27
2019-02-21T07:16:06.798Z,15.83
2019-02-21T07:18:36.995Z,16.60
2019-02-21T07:21:08.934Z,17.10
2019-02-21T07:23:43.411Z,18.37
2019-02-21T07:26:13.866Z,16.62
2019-02-21T07:28:44.074Z,19.23
2019-02-21T07:31:14.976Z,15.55
2019-02-21T07:33:48.286Z,16.70
2019-02-21T07:36:17.819Z,17.50
2019-02-21T07:38:48.008Z,17.87
2019-02-21T07:41:18.811Z,19.95
2019-02-21T07:43:49.250Z,20.70
2019-02-21T07:46:19.442Z,20.60
2019-02-21T07:48:50.001Z,21.15
2019-02-21T07:51:20.187Z,16.73
2019-02-21T07:53:50.570Z,21.50
2019-02-21T07:56:20.744Z,30.43
2019-02-21T07:58:50.916Z,25.50
2019-02-21T08:01:21.097Z,22.98
2019-02-21T08:03:51.892Z,22.30
2019-02-21T08:06:25.112Z,19.55
2019-02-21T08:08:57.487Z,21.40
2019-02-21T08:11:27.769Z,20.30
2019-02-21T08:13:57.922Z,22.30
2019-02-21T08:16:28.067Z,24.43
2019-02-21T08:18:58.610Z,25.52
2019-02-21T08:21:29.328Z,23.98
2019-02-21T08:24:00.595Z,24.95
2019-02-21T08:26:30.790Z,24.82
2019-02-21T08:29:01.040Z,25.72
2019-02-21T08:31:35.154Z,25.35
2019-02-21T08:34:09.484Z,30.37
2019-02-21T08:36:39.743Z,28.75
2019-02-21T08:39:11.408Z,27.70
2019-02-21T08:41:41.539Z,21.30
2019-02-21T08:44:11.749Z,22.35
2019-02-21T08:46:42.014Z,19.82
2019-02-21T08:49:12.299Z,16.67
2019-02-21T08:51:42.431Z,16.82
2019-02-21T08:54:12.916Z,15.95
2019-02-21T08:56:43.219Z,16.48
2019-02-21T08:59:13.365Z,15.80
2019-02-21T09:01:44.007Z,14.60
2019-02-21T09:04:26.769Z,14.75
2019-02-21T09:06:46.087Z,15.45
2019-02-21T09:09:19.214Z,15.05
2019-02-21T09:11:49.406Z,12.73
2019-02-21T09:14:19.557Z,14.63
2019-02-21T09:16:49.712Z,14.28
2019-02-21T09:19:20.208Z,14.20
2019-02-21T09:21:53.330Z,15.58
2019-02-21T09:24:37.499Z,14.68
2019-02-21T09:26:54.575Z,13.28
2019-02-21T09:29:24.762Z,13.78
2019-02-21T09:31:54.959Z,13.53
2019-02-21T09:34:25.533Z,11.73
2019-02-21T09:36:55.731Z,11.40
2019-02-21T09:39:25.868Z,12.50
2019-02-21T09:41:56.042Z,11.93
2019-02-21T09:44:27.446Z,11.95
2019-02-21T09:46:57.927Z,13.10
2019-02-21T09:49:28.258Z,11.65
2019-02-21T09:51:58.406Z,11.78
2019-02-21T09:54:29.762Z,11.22
2019-02-21T09:56:59.906Z,11.30
2019-02-21T09:59:30.056Z,11.85
2019-02-21T10:02:00.599Z,10.25
2019-02-21T10:04:32.411Z,11.35
2019-02-21T10:07:03.153Z,10.80
2019-02-21T10:09:34.144Z,11.53
2019-02-21T10:12:04.351Z,10.15
2019-02-21T10:14:34.661Z,11.90
2019-02-21T10:17:05.312Z,11.53
2019-02-21T10:19:35.765Z,10.05
2019-02-21T10:22:06.581Z,10.00
2019-02-21T10:24:36.932Z,10.18
2019-02-21T10:27:07.108Z,10.30
2019-02-21T10:29:37.253Z,8.93
2019-02-21T10:32:07.587Z,10.20
2019-02-21T10:34:42.883Z,9.80
2019-02-21T10:37:10.835Z,10.05
2019-02-21T10:39:41.161Z,9.43
2019-02-21T10:42:11.420Z,7.90
2019-02-21T10:44:41.737Z,9.88
2019-02-21T10:47:12.249Z,10.00
2019-02-21T10:49:42.547Z,8.75
2019-02-21T10:52:12.807Z,9.85
2019-02-21T10:54:43.105Z,9.85
2019-02-21T10:57:13.238Z,9.38
2019-02-21T10:59:46.567Z,10.40
2019-02-21T11:02:16.494Z,8.80
2019-02-21T11:04:54.328Z,11.60
2019-02-21T11:07:18.725Z,9.63
2019-02-21T11:09:48.813Z,9.68
2019-02-21T11:12:19.430Z,9.60
2019-02-21T11:14:49.560Z,9.35
2019-02-21T11:17:20.996Z,9.13
2019-02-21T11:19:51.197Z,10.72
2019-02-21T11:22:23.226Z,10.55
2019-02-21T11:24:54.517Z,9.73
2019-02-21T11:27:24.711Z,11.43
2019-02-21T11:29:55.481Z,9.33
2019-02-21T11:32:26.265Z,9.75
2019-02-21T11:35:05.701Z,8.80
2019-02-21T11:37:30.649Z,9.20
2019-02-21T11:40:00.839Z,9.93
2019-02-21T11:42:31.006Z,10.58
2019-02-21T11:45:01.534Z,9.45
2019-02-21T11:47:31.685Z,10.55
2019-02-21T11:50:01.840Z,9.40
2019-02-21T11:52:32.576Z,8.90
2019-02-21T11:55:02.761Z,9.43
2019-02-21T11:57:32.937Z,9.93
2019-02-21T12:00:03.978Z,9.23
2019-02-21T12:02:38.819Z,8.93
2019-02-21T12:05:16.854Z,9.05
2019-02-21T12:07:38.582Z,8.78
2019-02-21T12:10:09.352Z,9.35
2019-02-21T12:12:39.690Z,10.85
2019-02-21T12:15:10.584Z,9.23
2019-02-21T12:17:42.665Z,10.35
2019-02-21T12:20:13.756Z,9.98
2019-02-21T12:22:43.963Z,9.55
2019-02-21T12:25:15.197Z,9.80
2019-02-21T12:27:45.441Z,9.53
2019-02-21T12:30:17.187Z,9.73
2019-02-21T12:32:49.099Z,9.63
2019-02-21T12:35:29.107Z,10.18
2019-02-21T12:37:51.146Z,10.20
2019-02-21T12:40:21.285Z,9.60
2019-02-21T12:42:51.630Z,8.68
2019-02-21T12:45:22.212Z,7.65
2019-02-21T12:47:54.133Z,9.30
2019-02-21T12:50:24.400Z,9.38
2019-02-21T12:52:54.594Z,9.75
2019-02-21T12:55:30.655Z,9.60
2019-02-21T12:57:58.341Z,11.10
2019-02-21T13:00:33.068Z,10.45
2019-02-21T13:03:03.351Z,10.23
2019-02-21T13:05:40.912Z,10.40
2019-02-21T13:08:05.350Z,9.55
2019-02-21T13:10:35.518Z,10.53
2019-02-21T13:13:05.648Z,10.88
2019-02-21T13:15:36.647Z,10.75
2019-02-21T13:18:15.327Z,11.15
2019-02-21T13:20:38.649Z,10.68
2019-02-21T13:23:08.896Z,10.65
2019-02-21T13:25:39.027Z,10.60
2019-02-21T13:28:09.164Z,10.90
2019-02-21T13:30:39.296Z,9.28
2019-02-21T13:33:09.575Z,11.25
2019-02-21T13:35:39.720Z,9.80
2019-02-21T13:38:09.883Z,10.40
2019-02-21T13:40:40.055Z,11.33
2019-02-21T13:43:10.302Z,10.00
2019-02-21T13:45:42.210Z,10.40
2019-02-21T13:48:12.374Z,9.98
2019-02-21T13:50:43.401Z,10.23
2019-02-21T13:53:16.359Z,11.65
2019-02-21T13:55:46.529Z,11.43
2019-02-21T13:58:18.239Z,13.05
2019-02-21T14:00:49.520Z,10.70
2019-02-21T14:03:19.681Z,10.98
2019-02-21T14:05:49.803Z,10.70
2019-02-21T14:08:20.403Z,10.85
2019-02-21T14:10:50.561Z,10.68
2019-02-21T14:13:20.899Z,10.28
2019-02-21T14:15:51.941Z,10.88
2019-02-21T14:18:24.414Z,10.93
2019-02-21T14:20:54.019Z,10.45
2019-02-21T14:23:24.764Z,10.38
2019-02-21T14:25:54.983Z,12.58
2019-02-21T14:28:25.181Z,10.48
2019-02-21T14:30:55.358Z,11.22
2019-02-21T14:33:25.515Z,10.48
2019-02-21T14:35:55.699Z,10.63
2019-02-21T14:38:28.217Z,9.05
2019-02-21T14:40:58.086Z,9.00
2019-02-21T14:43:28.228Z,8.38
2019-02-21T14:46:01.668Z,8.45
2019-02-21T14:48:35.923Z,8.98
2019-02-21T14:51:06.965Z,9.55
2019-02-21T14:53:40.026Z,10.50
2019-02-21T14:56:13.152Z,9.33
2019-02-21T14:58:46.429Z,8.43
2019-02-21T15:01:19.192Z,7.90
2019-02-21T15:03:50.510Z,7.78
2019-02-21T15:06:27.459Z,8.65
2019-02-21T15:08:58.213Z,8.23
2019-02-21T15:11:30.428Z,11.53
2019-02-21T15:14:04.354Z,14.28
2019-02-21T15:16:34.878Z,14.87
2019-02-21T15:19:06.207Z,15.83
2019-02-21T15:21:39.048Z,15.23
2019-02-21T15:24:09.211Z,15.98
2019-02-21T15:26:41.198Z,16.70
2019-02-21T15:29:13.296Z,15.88
2019-02-21T15:31:44.451Z,15.75
2019-02-21T15:34:14.598Z,16.42
2019-02-21T15:36:44.867Z,15.35
2019-02-21T15:39:15.029Z,15.00
2019-02-21T15:41:45.305Z,12.50
2019-02-21T15:44:20.184Z,11.12
2019-02-21T15:46:50.408Z,11.50
2019-02-21T15:49:21.499Z,11.78
2019-02-21T15:51:53.004Z,11.05
2019-02-21T15:54:23.595Z,10.50
2019-02-21T15:56:54.060Z,12.45
2019-02-21T15:59:53.872Z,10.85
2019-02-21T16:02:36.011Z,9.28
2019-02-21T16:05:13.959Z,9.58
2019-02-21T16:08:34.122Z,9.45
2019-02-21T16:11:20.204Z,9.58
2019-02-21T16:14:03.070Z,10.53
2019-02-21T16:16:43.626Z,10.65
2019-02-21T16:19:31.569Z,10.10
2019-02-21T16:25:38.916Z,11.55
2019-02-21T16:28:30.787Z,10.48
2019-02-21T16:31:27.966Z,13.98
2019-02-21T16:34:09.182Z,9.58
2019-02-21T16:36:44.822Z,8.70
2019-02-21T16:39:38.745Z,9.65
2019-02-21T16:42:16.023Z,7.10
2019-02-21T16:44:50.665Z,7.70
2019-02-21T16:47:25.112Z,10.32
2019-02-21T16:49:58.356Z,7.80
2019-02-21T16:52:30.427Z,7.28
2019-02-21T16:55:45.804Z,6.40
2019-02-21T17:01:48.134Z,7.15
2019-02-21T17:04:40.671Z,10.85
2019-02-21T17:07:17.379Z,7.25
2019-02-21T17:09:46.822Z,6.60
2019-02-21T17:12:19.440Z,6.28
2019-02-21T17:14:53.738Z,6.10
2019-02-21T17:17:27.541Z,8.38
2019-02-21T17:20:00.332Z,6.80
2019-02-21T17:22:30.928Z,7.42
2019-02-21T17:25:01.165Z,6.70
2019-02-21T17:27:32.571Z,6.90
2019-02-21T17:30:03.793Z,6.15
2019-02-21T17:32:37.087Z,6.62
2019-02-21T17:35:11.248Z,6.83
2019-02-21T17:37:41.459Z,7.05
2019-02-21T17:40:14.885Z,7.15
2019-02-21T17:42:45.097Z,6.75
2019-02-21T17:45:16.515Z,18.73
2019-02-21T17:47:47.168Z,14.33
2019-02-21T17:50:17.748Z,34.50
2019-02-21T17:52:50.935Z,10.05
2019-02-21T17:55:21.109Z,7.65
2019-02-21T17:57:53.636Z,5.28
2019-02-21T18:00:29.261Z,6.25
2019-02-21T18:03:01.695Z,6.75
2019-02-21T18:05:34.228Z,6.42
2019-02-21T18:08:05.335Z,6.28
2019-02-21T18:10:35.641Z,6.20
2019-02-21T18:13:06.268Z,6.45
2019-02-21T18:15:42.277Z,7.17
2019-02-21T18:18:13.079Z,10.53
2019-02-21T18:20:44.181Z,14.35
2019-02-21T18:23:15.236Z,15.15
2019-02-21T18:25:50.564Z,14.93
2019-02-21T18:28:23.347Z,13.13
2019-02-21T18:30:54.394Z,13.48
2019-02-21T18:33:26.754Z,9.20
2019-02-21T18:36:03.935Z,7.25
2019-02-21T18:38:38.420Z,7.12
2019-02-21T18:41:11.934Z,7.65
2019-02-21T18:43:43.352Z,7.65
2019-02-21T18:46:14.401Z,7.60
2019-02-21T18:48:45.261Z,8.53
2019-02-21T18:51:15.504Z,7.40
2019-02-21T18:53:49.741Z,7.67
2019-02-21T18:56:22.198Z,8.75
2019-02-21T18:58:52.544Z,8.78
2019-02-21T19:01:25.751Z,7.15
2019-02-21T19:03:58.479Z,6.42
2019-02-21T19:06:28.800Z,6.00
2019-02-21T19:09:01.757Z,7.25
2019-02-21T19:11:34.541Z,7.08
2019-02-21T19:14:09.166Z,7.92
2019-02-21T19:16:40.869Z,6.45
2019-02-21T19:19:11.022Z,7.78
2019-02-21T19:21:42.960Z,6.67
2019-02-21T19:24:14.779Z,6.92
2019-02-21T19:26:45.279Z,8.23
2019-02-21T19:29:15.458Z,7.30
2019-02-21T19:31:45.881Z,7.55
2019-02-21T19:34:20.825Z,8.58
2019-02-21T19:36:51.448Z,9.35
2019-02-21T19:39:24.214Z,8.75
2019-02-21T19:41:56.935Z,12.05
2019-02-21T19:44:28.298Z,12.60
2019-02-21T19:46:58.584Z,10.63
2019-02-21T19:49:28.737Z,10.15
2019-02-21T19:52:00.087Z,12.18
2019-02-21T19:54:38.308Z,9.65
2019-02-21T19:57:18.169Z,9.85
2019-02-21T19:59:48.535Z,9.15
2019-02-21T20:02:21.974Z,11.60
2019-02-21T20:04:53.353Z,12.75
2019-02-21T20:07:25.369Z,14.55
2019-02-21T20:09:55.869Z,14.35
2019-02-21T20:12:27.201Z,15.63
2019-02-21T20:15:04.226Z,13.62
2019-02-21T20:17:34.631Z,10.85
2019-02-21T20:20:06.338Z,12.80
2019-02-21T20:22:39.350Z,10.60
2019-02-21T20:25:12.422Z,10.70
2019-02-21T20:27:42.607Z,9.60
2019-02-21T20:30:14.685Z,9.40
2019-02-21T20:32:44.994Z,9.85
2019-02-21T20:35:15.472Z,11.05
2019-02-21T20:37:47.048Z,10.78
2019-02-21T20:40:19.567Z,10.03
2019-02-21T20:42:49.829Z,9.73
2019-02-21T20:45:25.646Z,11.48
2019-02-21T20:47:56.500Z,10.80
2019-02-21T20:50:29.393Z,12.63
2019-02-21T20:52:59.976Z,12.70
2019-02-21T20:55:31.661Z,11.03
2019-02-21T20:58:02.716Z,11.65
2019-02-21T21:00:33.719Z,12.10
2019-02-21T21:03:05.331Z,12.45
2019-02-21T21:05:35.790Z,11.78
2019-02-21T21:08:06.863Z,11.78
2019-02-21T21:10:37.030Z,12.30
2019-02-21T21:13:09.843Z,14.83
2019-02-21T21:15:42.796Z,11.90
2019-02-21T21:18:13.690Z,12.10
2019-02-21T21:20:51.174Z,13.30
2019-02-21T21:23:23.080Z,15.85
2019-02-21T21:25:55.704Z,14.50
2019-02-21T21:28:30.684Z,15.23
2019-02-21T21:31:03.628Z,14.87
2019-02-21T21:33:34.459Z,13.50
2019-02-21T21:36:04.651Z,13.68
2019-02-21T21:38:34.813Z,12.80
2019-02-21T21:41:06.969Z,8.68
2019-02-21T21:43:38.748Z,9.35
2019-02-21T21:46:10.829Z,8.73
2019-02-21T21:48:45.192Z,8.23
2019-02-21T21:51:17.969Z,10.53
2019-02-21T21:53:49.843Z,10.30
2019-02-21T21:56:21.668Z,11.35
2019-02-21T21:59:02.578Z,11.97
2019-02-21T22:01:32.850Z,12.35
2019-02-21T22:04:05.716Z,11.00
2019-02-21T22:06:37.439Z,10.13
2019-02-21T22:09:09.007Z,10.18
2019-02-21T22:11:39.557Z,11.78
2019-02-21T22:14:09.767Z,11.95
2019-02-21T22:16:41.880Z,14.23
2019-02-21T22:19:13.483Z,12.88
2019-02-21T22:21:45.650Z,12.82
2019-02-21T22:24:16.971Z,11.60
2019-02-21T22:26:49.039Z,12.63
2019-02-21T22:29:21.387Z,11.97
2019-02-21T22:31:53.499Z,12.03
2019-02-21T22:34:24.207Z,12.43
2019-02-21T22:36:56.274Z,13.85
2019-02-21T22:39:27.877Z,14.28
2019-02-21T22:41:59.756Z,13.55
2019-02-21T22:44:31.234Z,14.87
2019-02-21T22:47:01.375Z,12.53
2019-02-21T22:49:31.535Z,13.60
2019-02-21T22:52:02.435Z,14.68
2019-02-21T22:54:33.979Z,15.23
2019-02-21T22:57:04.086Z,14.05
2019-02-21T22:59:36.645Z,13.75
2019-02-21T23:02:09.489Z,15.10
2019-02-21T23:04:50.082Z,13.40
2019-02-21T23:07:28.954Z,14.33
2019-02-21T23:09:59.163Z,12.88
2019-02-21T23:12:29.549Z,14.95
2019-02-21T23:15:04.210Z,12.30
2019-02-21T23:17:38.346Z,14.35
2019-02-21T23:20:10.138Z,12.35
2019-02-21T23:22:42.387Z,14.30
2019-02-21T23:25:15.157Z,12.43
2019-02-21T23:28:05.326Z,11.35
2019-02-21T23:30:37.645Z,12.25
2019-02-21T23:33:07.856Z,9.73
2019-02-21T23:35:40.204Z,10.05
2019-02-21T23:38:11.232Z,8.48
2019-02-21T23:40:42.028Z,9.55
2019-02-21T23:43:21.739Z,9.50
2019-02-21T23:45:56.486Z,7.95
2019-02-21T23:48:26.861Z,8.75
2019-02-21T23:51:19.188Z,7.97
2019-02-21T23:53:50.530Z,8.90
2019-02-21T23:56:23.394Z,8.48
2019-02-21T23:58:54.201Z,9.03
